sensor_id;sensor_type;location;lat;lon;timestamp;P1;durP1;ratioP1;P2;durP2;ratioP2
35223;SDS011;21367;51.930;8.112;2023-01-08T00:03:36;5.18;;;2.40;;
35223;SDS011;21367;51.930;8.112;2023-01-08T00:08:41;6.38;;;2.88;;
35223;SDS011;21367;51.930;8.112;2023-01-08T00:13:48;8.10;;;2.90;;
35223;SDS011;21367;51.930;8.112;2023-01-08T00:23:55;5.50;;;2.78;;
35223;SDS011;21367;51.930;8.112;2023-01-08T00:29:01;4.05;;;2.45;;
35223;SDS011;21367;51.930;8.112;2023-01-08T00:39:09;7.72;;;3.05;;
35223;SDS011;21367;51.930;8.112;2023-01-08T00:44:16;4.45;;;2.80;;
35223;SDS011;21367;51.930;8.112;2023-01-08T00:54:23;7.03;;;2.25;;
35223;SDS011;21367;51.930;8.112;2023-01-08T00:59:29;4.93;;;2.45;;
35223;SDS011;21367;51.930;8.112;2023-01-08T01:04:33;5.50;;;2.80;;
35223;SDS011;21367;51.930;8.112;2023-01-08T01:09:37;5.32;;;2.45;;
35223;SDS011;21367;51.930;8.112;2023-01-08T01:14:43;5.03;;;2.78;;
35223;SDS011;21367;51.930;8.112;2023-01-08T01:19:47;5.43;;;2.80;;
35223;SDS011;21367;51.930;8.112;2023-01-08T01:24:51;5.15;;;2.78;;
35223;SDS011;21367;51.930;8.112;2023-01-08T01:29:57;4.50;;;2.28;;
35223;SDS011;21367;51.930;8.112;2023-01-08T01:40:05;7.20;;;2.60;;
35223;SDS011;21367;51.930;8.112;2023-01-08T01:45:25;6.68;;;2.13;;
35223;SDS011;21367;51.930;8.112;2023-01-08T01:50:31;5.63;;;2.20;;
35223;SDS011;21367;51.930;8.112;2023-01-08T01:55:40;5.65;;;2.08;;
35223;SDS011;21367;51.930;8.112;2023-01-08T02:00:48;5.23;;;1.90;;
35223;SDS011;21367;51.930;8.112;2023-01-08T02:05:55;3.00;;;1.83;;
35223;SDS011;21367;51.930;8.112;2023-01-08T02:11:05;2.97;;;1.80;;
35223;SDS011;21367;51.930;8.112;2023-01-08T02:16:16;3.60;;;2.17;;
35223;SDS011;21367;51.930;8.112;2023-01-08T02:21:28;4.40;;;1.90;;
35223;SDS011;21367;51.930;8.112;2023-01-08T02:26:46;4.30;;;2.30;;
35223;SDS011;21367;51.930;8.112;2023-01-08T02:31:50;5.53;;;1.90;;
35223;SDS011;21367;51.930;8.112;2023-01-08T02:36:55;4.18;;;2.10;;
35223;SDS011;21367;51.930;8.112;2023-01-08T02:47:28;3.92;;;1.77;;
35223;SDS011;21367;51.930;8.112;2023-01-08T02:52:35;5.03;;;2.08;;
35223;SDS011;21367;51.930;8.112;2023-01-08T02:57:47;4.28;;;1.73;;
35223;SDS011;21367;51.930;8.112;2023-01-08T03:02:52;4.57;;;1.90;;
35223;SDS011;21367;51.930;8.112;2023-01-08T03:08:03;6.13;;;1.77;;
35223;SDS011;21367;51.930;8.112;2023-01-08T03:13:11;7.68;;;2.05;;
35223;SDS011;21367;51.930;8.112;2023-01-08T03:18:20;3.47;;;1.65;;
35223;SDS011;21367;51.930;8.112;2023-01-08T03:23:28;3.03;;;1.42;;
35223;SDS011;21367;51.930;8.112;2023-01-08T03:28:40;3.60;;;1.45;;
35223;SDS011;21367;51.930;8.112;2023-01-08T03:33:48;4.82;;;1.65;;
35223;SDS011;21367;51.930;8.112;2023-01-08T03:38:55;4.70;;;2.03;;
35223;SDS011;21367;51.930;8.112;2023-01-08T03:44:06;4.15;;;1.83;;
35223;SDS011;21367;51.930;8.112;2023-01-08T03:49:10;6.10;;;1.60;;
35223;SDS011;21367;51.930;8.112;2023-01-08T03:54:16;2.83;;;1.75;;
35223;SDS011;21367;51.930;8.112;2023-01-08T03:59:23;3.90;;;1.63;;
35223;SDS011;21367;51.930;8.112;2023-01-08T04:04:28;4.28;;;1.75;;
35223;SDS011;21367;51.930;8.112;2023-01-08T04:09:31;4.40;;;1.60;;
35223;SDS011;21367;51.930;8.112;2023-01-08T04:14:38;5.50;;;1.90;;
35223;SDS011;21367;51.930;8.112;2023-01-08T04:19:41;7.40;;;2.20;;
35223;SDS011;21367;51.930;8.112;2023-01-08T04:24:45;4.00;;;1.58;;
35223;SDS011;21367;51.930;8.112;2023-01-08T04:29:52;7.90;;;2.20;;
35223;SDS011;21367;51.930;8.112;2023-01-08T04:34:56;2.70;;;1.60;;
35223;SDS011;21367;51.930;8.112;2023-01-08T04:40:00;4.25;;;1.45;;
35223;SDS011;21367;51.930;8.112;2023-01-08T04:45:09;2.67;;;1.70;;
35223;SDS011;21367;51.930;8.112;2023-01-08T04:50:13;6.18;;;1.60;;
35223;SDS011;21367;51.930;8.112;2023-01-08T04:55:17;6.65;;;1.80;;
35223;SDS011;21367;51.930;8.112;2023-01-08T05:00:23;4.93;;;1.55;;
35223;SDS011;21367;51.930;8.112;2023-01-08T05:05:27;2.05;;;1.30;;
35223;SDS011;21367;51.930;8.112;2023-01-08T05:10:31;5.40;;;1.77;;
35223;SDS011;21367;51.930;8.112;2023-01-08T05:15:37;2.33;;;1.45;;
35223;SDS011;21367;51.930;8.112;2023-01-08T05:25:44;4.85;;;1.30;;
35223;SDS011;21367;51.930;8.112;2023-01-08T05:30:51;2.47;;;1.27;;
35223;SDS011;21367;51.930;8.112;2023-01-08T05:35:54;3.72;;;1.52;;
35223;SDS011;21367;51.930;8.112;2023-01-08T05:40:58;5.45;;;1.98;;
35223;SDS011;21367;51.930;8.112;2023-01-08T05:46:05;2.17;;;1.23;;
35223;SDS011;21367;51.930;8.112;2023-01-08T05:51:09;6.35;;;1.80;;
35223;SDS011;21367;51.930;8.112;2023-01-08T05:56:13;4.72;;;1.90;;
35223;SDS011;21367;51.930;8.112;2023-01-08T06:01:19;2.95;;;1.50;;
35223;SDS011;21367;51.930;8.112;2023-01-08T06:11:26;4.32;;;1.50;;
35223;SDS011;21367;51.930;8.112;2023-01-08T06:16:33;2.17;;;1.20;;
35223;SDS011;21367;51.930;8.112;2023-01-08T06:21:37;3.38;;;1.00;;
35223;SDS011;21367;51.930;8.112;2023-01-08T06:26:41;4.90;;;1.20;;
35223;SDS011;21367;51.930;8.112;2023-01-08T06:31:47;2.33;;;1.20;;
35223;SDS011;21367;51.930;8.112;2023-01-08T06:41:54;1.55;;;0.90;;
35223;SDS011;21367;51.930;8.112;2023-01-08T06:47:01;3.28;;;0.90;;
35223;SDS011;21367;51.930;8.112;2023-01-08T06:52:04;1.90;;;1.10;;
35223;SDS011;21367;51.930;8.112;2023-01-08T06:57:08;2.72;;;0.80;;
35223;SDS011;21367;51.930;8.112;2023-01-08T07:02:15;1.70;;;0.90;;
35223;SDS011;21367;51.930;8.112;2023-01-08T07:07:20;0.68;;;0.60;;
35223;SDS011;21367;51.930;8.112;2023-01-08T07:12:24;1.65;;;0.70;;
35223;SDS011;21367;51.930;8.112;2023-01-08T07:17:30;1.40;;;0.85;;
35223;SDS011;21367;51.930;8.112;2023-01-08T07:22:35;1.30;;;0.80;;
35223;SDS011;21367;51.930;8.112;2023-01-08T07:27:39;1.33;;;0.70;;
35223;SDS011;21367;51.930;8.112;2023-01-08T07:32:45;5.38;;;1.33;;
35223;SDS011;21367;51.930;8.112;2023-01-08T07:42:57;1.98;;;0.75;;
35223;SDS011;21367;51.930;8.112;2023-01-08T07:48:04;2.50;;;1.00;;
35223;SDS011;21367;51.930;8.112;2023-01-08T07:53:10;3.38;;;0.90;;
35223;SDS011;21367;51.930;8.112;2023-01-08T07:58:16;2.00;;;0.90;;
35223;SDS011;21367;51.930;8.112;2023-01-08T08:03:23;3.70;;;1.92;;
35223;SDS011;21367;51.930;8.112;2023-01-08T08:08:27;1.95;;;1.00;;
35223;SDS011;21367;51.930;8.112;2023-01-08T08:13:31;2.28;;;0.80;;
35223;SDS011;21367;51.930;8.112;2023-01-08T08:18:37;1.05;;;0.68;;
35223;SDS011;21367;51.930;8.112;2023-01-08T08:28:45;4.40;;;0.75;;
35223;SDS011;21367;51.930;8.112;2023-01-08T08:33:51;3.10;;;0.80;;
35223;SDS011;21367;51.930;8.112;2023-01-08T08:43:59;3.50;;;1.00;;
35223;SDS011;21367;51.930;8.112;2023-01-08T08:49:05;3.55;;;0.80;;
35223;SDS011;21367;51.930;8.112;2023-01-08T08:54:10;6.18;;;1.10;;
35223;SDS011;21367;51.930;8.112;2023-01-08T08:59:13;4.60;;;1.08;;
35223;SDS011;21367;51.930;8.112;2023-01-08T09:04:20;1.98;;;0.75;;
35223;SDS011;21367;51.930;8.112;2023-01-08T09:09:23;4.25;;;0.80;;
35223;SDS011;21367;51.930;8.112;2023-01-08T09:14:27;2.83;;;0.93;;
35223;SDS011;21367;51.930;8.112;2023-01-08T09:19:33;2.15;;;0.85;;
35223;SDS011;21367;51.930;8.112;2023-01-08T09:24:38;1.65;;;0.70;;
35223;SDS011;21367;51.930;8.112;2023-01-08T09:29:41;4.88;;;1.15;;
35223;SDS011;21367;51.930;8.112;2023-01-08T09:34:49;2.38;;;1.35;;
35223;SDS011;21367;51.930;8.112;2023-01-08T09:44:56;2.75;;;0.75;;
35223;SDS011;21367;51.930;8.112;2023-01-08T09:50:08;3.03;;;1.00;;
35223;SDS011;21367;51.930;8.112;2023-01-08T09:55:15;3.40;;;0.98;;
35223;SDS011;21367;51.930;8.112;2023-01-08T10:00:20;3.80;;;1.08;;
35223;SDS011;21367;51.930;8.112;2023-01-08T10:05:31;6.18;;;0.73;;
35223;SDS011;21367;51.930;8.112;2023-01-08T10:10:38;5.10;;;0.80;;
35223;SDS011;21367;51.930;8.112;2023-01-08T10:15:44;5.30;;;0.90;;
35223;SDS011;21367;51.930;8.112;2023-01-08T10:20:51;4.68;;;0.90;;
35223;SDS011;21367;51.930;8.112;2023-01-08T10:25:55;5.05;;;1.27;;
35223;SDS011;21367;51.930;8.112;2023-01-08T10:31:03;8.30;;;0.90;;
35223;SDS011;21367;51.930;8.112;2023-01-08T10:36:14;4.15;;;0.82;;
35223;SDS011;21367;51.930;8.112;2023-01-08T10:41:20;5.65;;;0.82;;
35223;SDS011;21367;51.930;8.112;2023-01-08T10:46:24;6.78;;;0.90;;
35223;SDS011;21367;51.930;8.112;2023-01-08T10:56:39;11.15;;;1.40;;
35223;SDS011;21367;51.930;8.112;2023-01-08T11:01:45;10.68;;;1.45;;
35223;SDS011;21367;51.930;8.112;2023-01-08T11:06:56;8.65;;;1.25;;
35223;SDS011;21367;51.930;8.112;2023-01-08T11:12:02;16.20;;;1.65;;
35223;SDS011;21367;51.930;8.112;2023-01-08T11:17:07;6.78;;;1.35;;
35223;SDS011;21367;51.930;8.112;2023-01-08T11:22:20;15.27;;;2.17;;
35223;SDS011;21367;51.930;8.112;2023-01-08T11:27:27;18.45;;;1.88;;
35223;SDS011;21367;51.930;8.112;2023-01-08T11:32:39;16.33;;;2.35;;
35223;SDS011;21367;51.930;8.112;2023-01-08T11:37:54;16.80;;;1.30;;
35223;SDS011;21367;51.930;8.112;2023-01-08T11:48:30;9.80;;;2.08;;
35223;SDS011;21367;51.930;8.112;2023-01-08T11:53:45;16.73;;;3.30;;
35223;SDS011;21367;51.930;8.112;2023-01-08T11:59:00;11.73;;;1.90;;
35223;SDS011;21367;51.930;8.112;2023-01-08T12:09:48;10.15;;;1.67;;
35223;SDS011;21367;51.930;8.112;2023-01-08T12:15:00;14.80;;;1.95;;
35223;SDS011;21367;51.930;8.112;2023-01-08T12:20:16;6.32;;;1.70;;
35223;SDS011;21367;51.930;8.112;2023-01-08T12:36:41;11.30;;;1.42;;
35223;SDS011;21367;51.930;8.112;2023-01-08T12:41:51;7.85;;;1.20;;
35223;SDS011;21367;51.930;8.112;2023-01-08T12:46:59;16.48;;;2.83;;
35223;SDS011;21367;51.930;8.112;2023-01-08T12:52:07;12.40;;;1.15;;
35223;SDS011;21367;51.930;8.112;2023-01-08T12:57:18;5.80;;;1.65;;
35223;SDS011;21367;51.930;8.112;2023-01-08T13:02:31;7.07;;;1.50;;
35223;SDS011;21367;51.930;8.112;2023-01-08T13:07:41;8.27;;;2.30;;
35223;SDS011;21367;51.930;8.112;2023-01-08T13:12:51;8.43;;;2.47;;
35223;SDS011;21367;51.930;8.112;2023-01-08T13:17:57;7.18;;;2.13;;
35223;SDS011;21367;51.930;8.112;2023-01-08T13:23:17;4.50;;;1.65;;
35223;SDS011;21367;51.930;8.112;2023-01-08T13:28:38;5.38;;;1.10;;
35223;SDS011;21367;51.930;8.112;2023-01-08T13:33:46;5.57;;;1.30;;
35223;SDS011;21367;51.930;8.112;2023-01-08T13:38:59;5.82;;;1.05;;
35223;SDS011;21367;51.930;8.112;2023-01-08T13:44:22;4.95;;;1.40;;
35223;SDS011;21367;51.930;8.112;2023-01-08T13:49:32;3.97;;;1.40;;
35223;SDS011;21367;51.930;8.112;2023-01-08T13:54:38;6.82;;;1.00;;
35223;SDS011;21367;51.930;8.112;2023-01-08T13:59:47;4.65;;;0.95;;
35223;SDS011;21367;51.930;8.112;2023-01-08T14:04:52;2.40;;;1.23;;
35223;SDS011;21367;51.930;8.112;2023-01-08T14:10:07;3.13;;;0.98;;
35223;SDS011;21367;51.930;8.112;2023-01-08T14:15:19;5.25;;;1.85;;
35223;SDS011;21367;51.930;8.112;2023-01-08T14:20:30;4.78;;;0.65;;
35223;SDS011;21367;51.930;8.112;2023-01-08T14:25:35;2.08;;;0.40;;
35223;SDS011;21367;51.930;8.112;2023-01-08T14:30:48;7.30;;;0.47;;
35223;SDS011;21367;51.930;8.112;2023-01-08T14:35:53;4.60;;;0.50;;
35223;SDS011;21367;51.930;8.112;2023-01-08T14:40:59;5.72;;;1.05;;
35223;SDS011;21367;51.930;8.112;2023-01-08T14:46:14;2.00;;;0.80;;
35223;SDS011;21367;51.930;8.112;2023-01-08T14:51:26;3.17;;;0.90;;
35223;SDS011;21367;51.930;8.112;2023-01-08T14:56:33;5.22;;;1.02;;
35223;SDS011;21367;51.930;8.112;2023-01-08T15:01:41;1.60;;;1.00;;
35223;SDS011;21367;51.930;8.112;2023-01-08T15:06:45;3.28;;;1.08;;
35223;SDS011;21367;51.930;8.112;2023-01-08T15:11:51;5.00;;;1.10;;
35223;SDS011;21367;51.930;8.112;2023-01-08T15:17:03;3.35;;;1.17;;
35223;SDS011;21367;51.930;8.112;2023-01-08T15:22:12;3.60;;;1.10;;
35223;SDS011;21367;51.930;8.112;2023-01-08T15:27:20;3.58;;;1.40;;
35223;SDS011;21367;51.930;8.112;2023-01-08T15:32:29;5.65;;;1.40;;
35223;SDS011;21367;51.930;8.112;2023-01-08T15:37:36;3.05;;;1.27;;
35223;SDS011;21367;51.930;8.112;2023-01-08T15:42:40;8.00;;;2.22;;
35223;SDS011;21367;51.930;8.112;2023-01-08T15:48:01;7.93;;;4.07;;
35223;SDS011;21367;51.930;8.112;2023-01-08T15:53:05;17.05;;;7.35;;
35223;SDS011;21367;51.930;8.112;2023-01-08T15:58:12;24.27;;;9.70;;
35223;SDS011;21367;51.930;8.112;2023-01-08T16:03:20;60.92;;;23.35;;
35223;SDS011;21367;51.930;8.112;2023-01-08T16:08:25;82.68;;;30.15;;
35223;SDS011;21367;51.930;8.112;2023-01-08T16:13:28;43.65;;;17.55;;
35223;SDS011;21367;51.930;8.112;2023-01-08T16:18:35;19.38;;;9.57;;
35223;SDS011;21367;51.930;8.112;2023-01-08T16:23:39;16.65;;;7.13;;
35223;SDS011;21367;51.930;8.112;2023-01-08T16:28:43;13.77;;;7.55;;
35223;SDS011;21367;51.930;8.112;2023-01-08T16:33:50;12.13;;;5.65;;
35223;SDS011;21367;51.930;8.112;2023-01-08T16:38:53;8.52;;;4.93;;
35223;SDS011;21367;51.930;8.112;2023-01-08T16:43:57;9.45;;;3.38;;
35223;SDS011;21367;51.930;8.112;2023-01-08T16:49:04;12.98;;;5.50;;
35223;SDS011;21367;51.930;8.112;2023-01-08T16:54:10;10.20;;;3.67;;
35223;SDS011;21367;51.930;8.112;2023-01-08T16:59:15;7.15;;;3.58;;
35223;SDS011;21367;51.930;8.112;2023-01-08T17:04:23;6.47;;;2.80;;
35223;SDS011;21367;51.930;8.112;2023-01-08T17:09:27;4.57;;;2.67;;
35223;SDS011;21367;51.930;8.112;2023-01-08T17:14:30;11.27;;;5.07;;
35223;SDS011;21367;51.930;8.112;2023-01-08T17:19:38;14.07;;;6.60;;
35223;SDS011;21367;51.930;8.112;2023-01-08T17:24:42;24.60;;;10.95;;
35223;SDS011;21367;51.930;8.112;2023-01-08T17:29:46;16.23;;;6.85;;
35223;SDS011;21367;51.930;8.112;2023-01-08T17:34:53;14.52;;;5.57;;
35223;SDS011;21367;51.930;8.112;2023-01-08T17:39:57;10.20;;;4.68;;
35223;SDS011;21367;51.930;8.112;2023-01-08T17:45:02;9.23;;;4.20;;
35223;SDS011;21367;51.930;8.112;2023-01-08T17:50:10;11.18;;;4.68;;
35223;SDS011;21367;51.930;8.112;2023-01-08T17:55:14;9.35;;;4.38;;
35223;SDS011;21367;51.930;8.112;2023-01-08T18:00:18;9.55;;;3.78;;
35223;SDS011;21367;51.930;8.112;2023-01-08T18:05:25;12.13;;;2.63;;
35223;SDS011;21367;51.930;8.112;2023-01-08T18:10:33;9.15;;;3.53;;
35223;SDS011;21367;51.930;8.112;2023-01-08T18:15:37;5.95;;;2.88;;
35223;SDS011;21367;51.930;8.112;2023-01-08T18:20:43;10.20;;;3.60;;
35223;SDS011;21367;51.930;8.112;2023-01-08T18:25:47;22.30;;;7.70;;
35223;SDS011;21367;51.930;8.112;2023-01-08T18:30:51;12.05;;;4.93;;
35223;SDS011;21367;51.930;8.112;2023-01-08T18:35:57;17.45;;;4.53;;
35223;SDS011;21367;51.930;8.112;2023-01-08T18:41:05;4.20;;;2.08;;
35223;SDS011;21367;51.930;8.112;2023-01-08T18:46:10;3.50;;;1.58;;
35223;SDS011;21367;51.930;8.112;2023-01-08T18:51:19;6.05;;;2.35;;
35223;SDS011;21367;51.930;8.112;2023-01-08T18:56:26;8.52;;;2.75;;
35223;SDS011;21367;51.930;8.112;2023-01-08T19:01:32;8.98;;;3.90;;
35223;SDS011;21367;51.930;8.112;2023-01-08T19:06:39;6.35;;;3.40;;
35223;SDS011;21367;51.930;8.112;2023-01-08T19:11:43;14.65;;;4.32;;
35223;SDS011;21367;51.930;8.112;2023-01-08T19:16:49;19.33;;;8.23;;
35223;SDS011;21367;51.930;8.112;2023-01-08T19:21:56;47.05;;;14.63;;
35223;SDS011;21367;51.930;8.112;2023-01-08T19:27:00;19.60;;;6.68;;
35223;SDS011;21367;51.930;8.112;2023-01-08T19:32:05;9.73;;;4.13;;
35223;SDS011;21367;51.930;8.112;2023-01-08T19:37:12;8.30;;;3.88;;
35223;SDS011;21367;51.930;8.112;2023-01-08T19:42:18;7.43;;;3.60;;
35223;SDS011;21367;51.930;8.112;2023-01-08T19:47:35;11.52;;;3.90;;
35223;SDS011;21367;51.930;8.112;2023-01-08T19:52:45;9.75;;;4.10;;
35223;SDS011;21367;51.930;8.112;2023-01-08T19:57:50;16.60;;;6.40;;
35223;SDS011;21367;51.930;8.112;2023-01-08T20:02:56;14.30;;;6.25;;
35223;SDS011;21367;51.930;8.112;2023-01-08T20:08:02;16.30;;;5.70;;
35223;SDS011;21367;51.930;8.112;2023-01-08T20:13:07;8.88;;;3.83;;
35223;SDS011;21367;51.930;8.112;2023-01-08T20:18:10;8.23;;;2.78;;
35223;SDS011;21367;51.930;8.112;2023-01-08T20:23:16;6.55;;;2.63;;
35223;SDS011;21367;51.930;8.112;2023-01-08T20:33:24;6.97;;;3.42;;
35223;SDS011;21367;51.930;8.112;2023-01-08T20:38:30;8.23;;;3.50;;
35223;SDS011;21367;51.930;8.112;2023-01-08T20:48:38;4.93;;;1.88;;
35223;SDS011;21367;51.930;8.112;2023-01-08T20:53:46;7.38;;;2.35;;
35223;SDS011;21367;51.930;8.112;2023-01-08T20:58:51;7.38;;;2.08;;
35223;SDS011;21367;51.930;8.112;2023-01-08T21:03:57;5.80;;;1.13;;
35223;SDS011;21367;51.930;8.112;2023-01-08T21:09:04;5.75;;;1.60;;
35223;SDS011;21367;51.930;8.112;2023-01-08T21:14:11;4.50;;;1.65;;
35223;SDS011;21367;51.930;8.112;2023-01-08T21:19:14;5.97;;;1.48;;
35223;SDS011;21367;51.930;8.112;2023-01-08T21:24:21;7.85;;;2.17;;
35223;SDS011;21367;51.930;8.112;2023-01-08T21:34:28;11.60;;;2.00;;
35223;SDS011;21367;51.930;8.112;2023-01-08T21:39:35;7.22;;;2.15;;
35223;SDS011;21367;51.930;8.112;2023-01-08T21:44:41;9.23;;;3.67;;
35223;SDS011;21367;51.930;8.112;2023-01-08T21:49:57;12.85;;;3.08;;
35223;SDS011;21367;51.930;8.112;2023-01-08T21:55:04;6.60;;;2.65;;
35223;SDS011;21367;51.930;8.112;2023-01-08T22:00:08;7.18;;;2.08;;
35223;SDS011;21367;51.930;8.112;2023-01-08T22:05:13;5.57;;;1.80;;
35223;SDS011;21367;51.930;8.112;2023-01-08T22:10:20;4.55;;;2.00;;
35223;SDS011;21367;51.930;8.112;2023-01-08T22:15:24;6.80;;;2.45;;
35223;SDS011;21367;51.930;8.112;2023-01-08T22:20:27;13.75;;;2.22;;
35223;SDS011;21367;51.930;8.112;2023-01-08T22:25:37;9.25;;;2.22;;
35223;SDS011;21367;51.930;8.112;2023-01-08T22:30:41;3.05;;;1.38;;
35223;SDS011;21367;51.930;8.112;2023-01-08T22:35:45;3.60;;;1.60;;
35223;SDS011;21367;51.930;8.112;2023-01-08T22:40:51;7.10;;;2.28;;
35223;SDS011;21367;51.930;8.112;2023-01-08T22:51:00;8.00;;;1.67;;
35223;SDS011;21367;51.930;8.112;2023-01-08T22:56:08;2.83;;;1.30;;
35223;SDS011;21367;51.930;8.112;2023-01-08T23:01:13;2.55;;;1.05;;
35223;SDS011;21367;51.930;8.112;2023-01-08T23:06:19;10.93;;;1.20;;
35223;SDS011;21367;51.930;8.112;2023-01-08T23:11:26;4.60;;;1.37;;
35223;SDS011;21367;51.930;8.112;2023-01-08T23:16:31;5.78;;;1.20;;
35223;SDS011;21367;51.930;8.112;2023-01-08T23:21:35;3.88;;;1.17;;
35223;SDS011;21367;51.930;8.112;2023-01-08T23:26:42;4.35;;;1.10;;
35223;SDS011;21367;51.930;8.112;2023-01-08T23:31:46;4.35;;;1.08;;
35223;SDS011;21367;51.930;8.112;2023-01-08T23:36:50;4.63;;;1.10;;
35223;SDS011;21367;51.930;8.112;2023-01-08T23:41:57;10.95;;;1.33;;
35223;SDS011;21367;51.930;8.112;2023-01-08T23:47:01;5.20;;;1.13;;
35223;SDS011;21367;51.930;8.112;2023-01-08T23:52:05;4.45;;;1.38;;
35223;SDS011;21367;51.930;8.112;2023-01-08T23:57:12;6.43;;;1.50;;
